Time;durP1;ratioP1;P1;durP2;ratioP2;P2;SDS_P1;SDS_P2;PMS_P1;PMS_P2;Temp;Humidity;BMP_temperature;BMP_pressure;BME280_temperature;BME280_humidity;BME280_pressure;Samples;Min_cycle;Max_cycle;Signal;HPM_P1;HPM_P2
2022/07/25 00:00:36;;;;;;;9.05;6.55;;;28.00;67.70;;;;;;5025621;28;20042;-61
2022/07/25 00:03:02;;;;;;;7.25;6.55;;;28.00;67.80;;;;;;5024624;28;20232;-60
2022/07/25 00:05:27;;;;;;;7.70;6.65;;;28.00;67.90;;;;;;5023268;28;20079;-61
2022/07/25 00:07:53;;;;;;;8.52;6.78;;;27.90;68.00;;;;;;5005493;28;20057;-60
2022/07/25 00:10:18;;;;;;;7.38;6.68;;;27.90;68.10;;;;;;5024330;28;20083;-60
2022/07/25 00:12:44;;;;;;;7.07;6.38;;;27.80;68.10;;;;;;5025637;28;20121;-61
2022/07/25 00:15:10;;;;;;;7.68;6.95;;;27.80;68.30;;;;;;5024380;28;20068;-60
2022/07/25 00:17:35;;;;;;;7.70;6.60;;;27.80;68.40;;;;;;5024157;28;20053;-60
2022/07/25 00:20:01;;;;;;;7.05;6.45;;;27.80;68.50;;;;;;5023273;28;20049;-61
2022/07/25 00:22:26;;;;;;;7.45;6.85;;;27.70;68.60;;;;;;5008045;28;20109;-60
2022/07/25 00:24:52;;;;;;;7.75;7.03;;;27.70;69.40;;;;;;5022705;28;20737;-61
2022/07/25 00:27:17;;;;;;;7.38;6.68;;;27.60;68.80;;;;;;5023895;28;20064;-60
2022/07/25 00:29:43;;;;;;;7.38;6.65;;;27.60;68.90;;;;;;5024666;28;20030;-60
2022/07/25 00:32:09;;;;;;;7.38;6.68;;;27.60;68.90;;;;;;5022097;28;20068;-61
2022/07/25 00:34:34;;;;;;;7.28;6.60;;;27.60;69.00;;;;;;5004805;28;20048;-60
2022/07/25 00:37:00;;;;;;;7.80;6.53;;;27.60;69.10;;;;;;5022904;28;20179;-60
2022/07/25 00:39:25;;;;;;;7.88;6.70;;;27.60;69.30;;;;;;5024180;28;20542;-61
2022/07/25 00:41:51;;;;;;;7.68;6.90;;;27.50;69.20;;;;;;5023882;28;20025;-61
2022/07/25 00:44:28;;;;;;;7.22;6.50;;;27.50;69.30;;;;;;5022588;28;20041;-60
2022/07/25 00:46:54;;;;;;;7.63;6.88;;;27.40;69.30;;;;;;5023789;28;20578;-60
2022/07/25 00:49:19;;;;;;;8.00;7.20;;;27.40;69.50;;;;;;5023012;28;20037;-61
2022/07/25 00:51:45;;;;;;;9.05;6.75;;;27.40;69.60;;;;;;5025189;28;20033;-61
2022/07/25 00:54:11;;;;;;;7.78;7.03;;;27.40;69.70;;;;;;5023353;28;20457;-60
2022/07/25 00:56:36;;;;;;;8.32;7.50;;;27.30;69.80;;;;;;5022702;28;20033;-60
2022/07/25 00:59:02;;;;;;;8.32;7.13;;;27.30;69.80;;;;;;5022702;28;20103;-61
2022/07/25 01:01:27;;;;;;;7.85;7.15;;;27.20;69.90;;;;;;5023872;28;20444;-60
2022/07/25 01:03:53;;;;;;;7.40;6.78;;;27.20;70.00;;;;;;5024300;28;20045;-60
2022/07/25 01:06:19;;;;;;;8.43;7.45;;;27.10;69.90;;;;;;5024706;28;20477;-61
2022/07/25 01:08:44;;;;;;;7.70;7.00;;;27.20;70.10;;;;;;5022315;28;20033;-60
2022/07/25 01:11:10;;;;;;;8.65;7.07;;;27.20;70.30;;;;;;5006025;28;20185;-60
2022/07/25 01:13:36;;;;;;;7.97;7.25;;;27.10;70.30;;;;;;5020264;28;20037;-61
2022/07/25 01:16:01;;;;;;;7.90;7.05;;;27.10;70.50;;;;;;5024368;28;20030;-60
2022/07/25 01:18:27;;;;;;;7.93;7.20;;;27.10;70.50;;;;;;5023184;28;20408;-61
2022/07/25 01:20:52;;;;;;;9.68;7.38;;;27.10;70.60;;;;;;5005933;28;20030;-61
2022/07/25 01:23:18;;;;;;;8.70;7.45;;;27.10;70.70;;;;;;5021308;28;20036;-61
2022/07/25 01:25:43;;;;;;;8.50;7.70;;;27.10;70.80;;;;;;5003976;28;20519;-60
2022/07/25 01:28:09;;;;;;;8.20;7.43;;;27.10;70.90;;;;;;5020084;28;20082;-64
2022/07/25 01:30:34;;;;;;;7.95;7.15;;;27.00;70.90;;;;;;5023369;28;20083;-61
2022/07/25 01:33:00;;;;;;;7.78;7.13;;;27.00;70.90;;;;;;5023898;28;20033;-60
2022/07/25 01:35:25;;;;;;;8.25;7.43;;;27.00;71.00;;;;;;5022922;28;20030;-61
2022/07/25 01:37:51;;;;;;;7.97;7.28;;;26.90;71.10;;;;;;5022827;28;20072;-61
2022/07/25 01:40:16;;;;;;;8.80;7.35;;;26.90;71.10;;;;;;5023927;28;20524;-61
2022/07/25 01:42:42;;;;;;;8.20;7.40;;;26.90;71.20;;;;;;5022130;28;20069;-60
2022/07/25 01:45:08;;;;;;;8.48;7.45;;;26.80;71.30;;;;;;5022068;28;20108;-60
2022/07/25 01:47:33;;;;;;;8.75;7.97;;;26.80;71.40;;;;;;5020331;28;20021;-61
2022/07/25 01:49:59;;;;;;;8.45;7.50;;;26.80;71.50;;;;;;5023684;28;20051;-60
2022/07/25 01:52:24;;;;;;;7.57;6.80;;;26.80;71.60;;;;;;5022380;28;20049;-60
2022/07/25 01:54:50;;;;;;;8.55;7.65;;;26.70;71.70;;;;;;5022468;28;20060;-61
2022/07/25 01:57:15;;;;;;;8.45;7.68;;;26.70;71.80;;;;;;5004304;28;20087;-60
2022/07/25 01:59:41;;;;;;;8.23;7.50;;;26.70;71.90;;;;;;5021326;28;20333;-60
2022/07/25 02:02:07;;;;;;;8.60;7.72;;;26.60;71.90;;;;;;5019861;28;20061;-61
2022/07/25 02:04:32;;;;;;;8.20;7.47;;;26.70;72.00;;;;;;5021911;28;20037;-60
2022/07/25 02:06:58;;;;;;;9.90;7.93;;;26.60;72.10;;;;;;5020361;28;20112;-61
2022/07/25 02:09:24;;;;;;;8.23;7.53;;;26.60;72.20;;;;;;5023274;28;20026;-60
2022/07/25 02:11:49;;;;;;;9.32;8.23;;;26.60;72.20;;;;;;5022311;28;20163;-61
2022/07/25 02:14:15;;;;;;;7.97;7.28;;;26.50;72.40;;;;;;5021364;28;20468;-60
2022/07/25 02:16:40;;;;;;;8.25;7.50;;;26.60;72.60;;;;;;5022500;28;20455;-61
2022/07/25 02:19:06;;;;;;;10.15;7.72;;;26.50;72.60;;;;;;5022450;28;20468;-60
2022/07/25 02:21:31;;;;;;;8.60;7.72;;;26.50;72.70;;;;;;5004393;28;20021;-61
2022/07/25 02:23:57;;;;;;;10.05;7.60;;;26.50;72.80;;;;;;5004810;28;20048;-62
2022/07/25 02:26:22;;;;;;;8.23;7.43;;;26.40;72.80;;;;;;5022298;28;20677;-60
2022/07/25 02:28:48;;;;;;;8.80;7.65;;;26.40;72.90;;;;;;5003087;28;20041;-61
2022/07/25 02:31:14;;;;;;;8.90;8.02;;;26.40;73.00;;;;;;5023604;28;20797;-60
2022/07/25 02:33:39;;;;;;;11.27;8.30;;;26.40;73.20;;;;;;5022930;28;20041;-61
2022/07/25 02:36:05;;;;;;;9.10;8.13;;;26.40;73.30;;;;;;5005219;28;20084;-61
2022/07/25 02:38:31;;;;;;;8.68;7.88;;;26.40;73.40;;;;;;5022032;28;20033;-61
2022/07/25 02:40:56;;;;;;;8.10;7.32;;;26.30;73.40;;;;;;5020014;28;20029;-61
2022/07/25 02:43:22;;;;;;;8.70;7.90;;;26.30;73.60;;;;;;5021367;28;20473;-60
2022/07/25 02:45:47;;;;;;;8.75;7.80;;;26.30;73.60;;;;;;5022068;28;20092;-60
2022/07/25 02:48:13;;;;;;;8.43;7.63;;;26.30;73.80;;;;;;5020083;28;20029;-60
2022/07/25 02:50:39;;;;;;;8.57;7.88;;;26.20;73.70;;;;;;5021758;28;20492;-60
2022/07/25 02:53:04;;;;;;;10.90;8.32;;;26.20;73.90;;;;;;5023823;28;20065;-61
2022/07/25 02:55:30;;;;;;;9.63;8.55;;;26.20;73.90;;;;;;5021457;28;20389;-60
2022/07/25 02:57:56;;;;;;;7.95;7.15;;;26.10;74.00;;;;;;5021509;28;20497;-61
2022/07/25 03:00:21;;;;;;;9.00;8.10;;;26.20;74.10;;;;;;5022042;28;20033;-60
2022/07/25 03:02:47;;;;;;;9.10;8.30;;;26.10;74.10;;;;;;5022364;28;20076;-60
2022/07/25 03:05:13;;;;;;;8.52;7.72;;;26.10;74.30;;;;;;5023034;28;20033;-61
2022/07/25 03:07:39;;;;;;;8.10;7.20;;;26.10;74.20;;;;;;5003490;28;20473;-60
2022/07/25 03:10:05;;;;;;;8.40;7.32;;;26.10;74.30;;;;;;4985393;28;20069;-60
2022/07/25 03:12:34;;;;;;;8.82;7.97;;;26.10;74.30;;;;;;5020789;28;20272;-61
2022/07/25 03:15:00;;;;;;;9.48;8.40;;;26.10;75.10;;;;;;5005706;28;20385;-60
2022/07/25 03:17:26;;;;;;;65.18;12.35;;;26.10;74.50;;;;;;5004117;28;20072;-60
2022/07/25 03:19:51;;;;;;;33.42;10.95;;;26.10;74.80;;;;;;5020052;28;20037;-60
2022/07/25 03:22:17;;;;;;;54.90;13.77;;;26.00;74.80;;;;;;5022013;28;20497;-60
2022/07/25 03:24:42;;;;;;;49.22;12.85;;;26.00;75.00;;;;;;5022859;28;20037;-61
2022/07/25 03:27:08;;;;;;;48.30;11.40;;;25.90;75.00;;;;;;5019784;28;20029;-60
2022/07/25 03:29:34;;;;;;;35.05;9.63;;;26.00;75.20;;;;;;5021767;28;20029;-60
2022/07/25 03:31:59;;;;;;;27.70;9.90;;;25.90;75.20;;;;;;5021712;28;20532;-60
2022/07/25 03:34:25;;;;;;;22.98;8.80;;;25.90;75.20;;;;;;5022336;28;20033;-60
2022/07/25 03:36:50;;;;;;;21.40;9.68;;;25.90;75.30;;;;;;5020216;28;20095;-60
2022/07/25 03:39:16;;;;;;;23.77;9.50;;;25.90;75.40;;;;;;5019367;28;20477;-60
2022/07/25 03:41:41;;;;;;;20.80;9.70;;;25.90;75.40;;;;;;5021982;28;20061;-60
2022/07/25 03:44:07;;;;;;;25.30;9.38;;;25.90;75.70;;;;;;5022737;28;21004;-60
2022/07/25 03:46:32;;;;;;;15.30;9.82;;;25.80;75.80;;;;;;5021981;28;20277;-60
2022/07/25 03:48:58;;;;;;;23.27;9.73;;;25.80;76.00;;;;;;5020567;28;20106;-61
2022/07/25 03:51:23;;;;;;;15.13;10.55;;;25.80;76.00;;;;;;5024131;28;20029;-61
2022/07/25 03:54:01;;;;;;;16.23;10.50;;;25.80;76.00;;;;;;5026730;28;20132;-60
2022/07/25 03:56:37;;;;;;;21.98;10.98;;;25.70;76.10;;;;;;5025014;28;20040;-60
2022/07/25 03:59:06;;;;;;;18.60;9.25;;;25.70;76.10;;;;;;5038829;28;20076;-60
2022/07/25 04:01:32;;;;;;;22.85;10.50;;;25.70;76.30;;;;;;5024936;28;20436;-60
2022/07/25 04:03:57;;;;;;;14.27;9.65;;;25.70;76.30;;;;;;5021018;28;20331;-60
2022/07/25 04:06:23;;;;;;;19.55;10.02;;;25.70;76.40;;;;;;5003999;28;20039;-60
2022/07/25 04:08:49;;;;;;;15.48;9.68;;;25.60;76.50;;;;;;5007385;28;20408;-61
2022/07/25 04:11:14;;;;;;;12.27;9.75;;;25.60;77.20;;;;;;5022795;28;20041;-60
2022/07/25 04:13:40;;;;;;;15.25;9.80;;;25.60;76.60;;;;;;5022395;28;20076;-60
2022/07/25 04:16:06;;;;;;;18.25;10.07;;;25.60;76.70;;;;;;5007725;28;20034;-61
2022/07/25 04:18:31;;;;;;;15.18;9.57;;;25.60;76.70;;;;;;5023952;28;20067;-61
2022/07/25 04:20:57;;;;;;;22.42;9.75;;;25.60;76.70;;;;;;5009492;28;20022;-60
2022/07/25 04:23:22;;;;;;;23.45;10.65;;;25.50;76.70;;;;;;5025044;28;20404;-60
2022/07/25 04:25:47;;;;;;;10.52;9.43;;;25.50;76.70;;;;;;5025076;28;20022;-60
2022/07/25 04:28:13;;;;;;;12.50;9.07;;;25.50;77.00;;;;;;5021536;28;20052;-60
2022/07/25 04:30:39;;;;;;;17.13;9.52;;;25.50;77.00;;;;;;5022972;28;20033;-60
2022/07/25 04:33:04;;;;;;;14.77;9.18;;;25.50;77.10;;;;;;5025138;28;20029;-60
2022/07/25 04:35:30;;;;;;;10.68;9.52;;;25.50;77.20;;;;;;5024847;28;20036;-61
2022/07/25 04:37:55;;;;;;;11.45;9.77;;;25.40;77.20;;;;;;5022387;28;20037;-60
2022/07/25 04:40:21;;;;;;;13.35;9.18;;;25.40;77.30;;;;;;5024844;28;20037;-61
2022/07/25 04:42:46;;;;;;;11.77;9.90;;;25.40;77.40;;;;;;5006069;28;20060;-60
2022/07/25 04:45:12;;;;;;;12.85;9.40;;;25.40;77.60;;;;;;5024111;28;20025;-60
2022/07/25 04:47:37;;;;;;;16.83;8.90;;;25.40;77.60;;;;;;5005932;28;20025;-60
2022/07/25 04:50:03;;;;;;;11.88;9.13;;;25.40;77.70;;;;;;5023799;28;20371;-60
2022/07/25 04:52:28;;;;;;;13.10;9.27;;;25.40;77.80;;;;;;5020002;28;20428;-60
2022/07/25 04:54:54;;;;;;;10.70;9.27;;;25.30;77.90;;;;;;5023912;28;20037;-60
2022/07/25 04:57:19;;;;;;;10.35;9.23;;;25.30;77.80;;;;;;5021339;28;20068;-60
2022/07/25 04:59:45;;;;;;;12.23;9.80;;;25.30;78.10;;;;;;5022967;28;20183;-60
2022/07/25 05:02:10;;;;;;;11.55;9.23;;;25.30;78.20;;;;;;5022138;28;20431;-60
2022/07/25 05:04:36;;;;;;;13.27;9.15;;;25.30;78.10;;;;;;5023828;28;20021;-59
2022/07/25 05:07:02;;;;;;;11.32;9.07;;;25.30;78.20;;;;;;5020056;28;20041;-60
2022/07/25 05:09:28;;;;;;;9.85;8.85;;;25.30;78.20;;;;;;5006124;28;20029;-60
2022/07/25 05:11:53;;;;;;;10.10;8.77;;;25.40;78.40;;;;;;5022429;28;20041;-61
2022/07/25 05:14:19;;;;;;;10.50;9.48;;;25.30;78.50;;;;;;5024566;28;20057;-62
2022/07/25 05:16:44;;;;;;;10.23;9.20;;;25.30;78.60;;;;;;5023871;28;20080;-60
2022/07/25 05:19:10;;;;;;;10.05;8.98;;;25.30;78.60;;;;;;5024131;28;20068;-60
2022/07/25 05:21:37;;;;;;;12.02;9.02;;;25.30;78.70;;;;;;5025012;28;20061;-60
2022/07/25 05:24:03;;;;;;;9.77;8.82;;;25.40;78.90;;;;;;5023131;28;20044;-60
2022/07/25 05:26:28;;;;;;;10.45;9.32;;;25.30;78.80;;;;;;5022668;28;20080;-60
2022/07/25 05:28:54;;;;;;;14.45;9.65;;;25.20;78.80;;;;;;5021800;28;20116;-60
2022/07/25 05:31:19;;;;;;;9.70;8.70;;;25.20;78.80;;;;;;5024271;28;20117;-60
2022/07/25 05:33:45;;;;;;;9.60;8.60;;;25.30;79.00;;;;;;5022957;28;20021;-61
2022/07/25 05:36:10;;;;;;;9.60;8.70;;;25.20;78.90;;;;;;5025782;28;20025;-61
2022/07/25 05:38:36;;;;;;;9.63;8.73;;;25.20;78.90;;;;;;5019402;28;20639;-60
2022/07/25 05:41:01;;;;;;;9.88;8.52;;;25.30;79.00;;;;;;5023467;28;20396;-58
2022/07/25 05:43:27;;;;;;;9.98;8.98;;;25.20;79.00;;;;;;5021311;28;20899;-60
2022/07/25 05:45:52;;;;;;;9.40;8.50;;;25.20;79.10;;;;;;5022993;28;20044;-60
2022/07/25 05:48:18;;;;;;;8.98;8.15;;;25.20;79.20;;;;;;5018578;28;20017;-60
2022/07/25 05:50:44;;;;;;;9.70;8.90;;;25.20;79.30;;;;;;5019348;28;20033;-60
2022/07/25 05:53:10;;;;;;;9.38;8.48;;;25.20;79.30;;;;;;5021387;28;20029;-60
2022/07/25 05:55:36;;;;;;;10.93;9.45;;;25.30;79.50;;;;;;5017564;28;20435;-60
2022/07/25 05:58:01;;;;;;;12.05;9.48;;;25.20;79.50;;;;;;5002259;28;20057;-60
2022/07/25 06:00:27;;;;;;;10.38;8.88;;;25.20;79.60;;;;;;5022929;28;20044;-60
2022/07/25 06:02:53;;;;;;;10.30;9.23;;;25.20;79.60;;;;;;5018720;28;20033;-61
2022/07/25 06:05:18;;;;;;;11.52;9.32;;;25.20;79.70;;;;;;5005519;28;20033;-60
2022/07/25 06:07:44;;;;;;;10.25;9.30;;;25.20;80.70;;;;;;5014849;28;20056;-61
2022/07/25 06:10:09;;;;;;;12.57;9.63;;;25.20;80.40;;;;;;5020140;28;20091;-60
2022/07/25 06:12:35;;;;;;;10.80;9.75;;;25.20;80.80;;;;;;5020481;28;20029;-61
2022/07/25 06:15:00;;;;;;;11.15;9.77;;;25.20;80.70;;;;;;5019773;28;20060;-60
2022/07/25 06:17:26;;;;;;;11.15;9.77;;;25.20;81.60;;;;;;5016744;28;20037;-61
2022/07/25 06:19:51;;;;;;;12.15;10.90;;;25.10;81.50;;;;;;5009261;28;20054;-61
2022/07/25 06:22:18;;;;;;;12.88;11.40;;;25.10;82.30;;;;;;5022061;28;20163;-62
2022/07/25 06:24:44;;;;;;;12.23;10.90;;;25.10;82.40;;;;;;5001813;28;20026;-61
2022/07/25 06:27:09;;;;;;;11.88;10.75;;;25.00;82.70;;;;;;5021543;28;20026;-60
2022/07/25 06:29:35;;;;;;;12.45;11.02;;;25.00;83.10;;;;;;5022093;28;20036;-61
2022/07/25 06:32:01;;;;;;;11.18;10.05;;;25.00;83.40;;;;;;5020414;28;20499;-60
2022/07/25 06:34:27;;;;;;;13.82;10.93;;;25.00;83.60;;;;;;5017904;28;20041;-61
2022/07/25 06:36:53;;;;;;;12.40;10.82;;;24.90;83.90;;;;;;5016569;28;20025;-62
2022/07/25 06:39:18;;;;;;;13.80;10.98;;;24.90;84.20;;;;;;5018803;28;20468;-62
2022/07/25 06:41:44;;;;;;;15.80;10.85;;;24.90;84.80;;;;;;5015650;28;20033;-62
2022/07/25 06:44:09;;;;;;;12.57;11.38;;;24.90;85.10;;;;;;5019446;28;20064;-61
2022/07/25 06:46:35;;;;;;;12.75;11.50;;;24.90;85.30;;;;;;5018873;28;20112;-59
2022/07/25 06:49:00;;;;;;;12.55;10.93;;;25.00;85.40;;;;;;5015068;28;20030;-64
2022/07/25 06:51:26;;;;;;;12.07;10.90;;;24.90;85.40;;;;;;5022517;28;20069;-59
2022/07/25 06:53:52;;;;;;;21.98;11.93;;;24.90;85.30;;;;;;5018908;28;20474;-60
2022/07/25 06:56:18;;;;;;;12.55;11.20;;;24.90;85.30;;;;;;5021256;28;20026;-60
2022/07/25 06:58:43;;;;;;;18.65;10.70;;;24.90;85.30;;;;;;5016462;28;20025;-60
2022/07/25 07:01:09;;;;;;;11.60;10.55;;;25.00;84.90;;;;;;5013595;28;20028;-60
2022/07/25 07:03:37;;;;;;;12.90;11.10;;;25.00;85.10;;;;;;5017196;28;20030;-61
2022/07/25 07:06:04;;;;;;;12.20;10.82;;;25.00;84.90;;;;;;5020596;28;20179;-61
2022/07/25 07:08:30;;;;;;;14.55;11.48;;;25.00;85.30;;;;;;5017563;28;20691;-60
2022/07/25 07:10:55;;;;;;;16.13;11.52;;;25.00;85.30;;;;;;5014637;28;20168;-62
2022/07/25 07:13:22;;;;;;;13.65;11.30;;;25.10;85.60;;;;;;5017541;28;20041;-61
2022/07/25 07:15:48;;;;;;;17.70;11.98;;;25.10;85.60;;;;;;5011484;28;20069;-62
2022/07/25 07:18:17;;;;;;;15.15;10.63;;;25.10;85.50;;;;;;4994369;28;20041;-61
2022/07/25 07:20:43;;;;;;;15.50;11.25;;;25.10;85.10;;;;;;5017600;28;20029;-62
2022/07/25 07:23:09;;;;;;;15.70;11.68;;;25.10;85.20;;;;;;5020850;28;21068;-61
2022/07/25 07:25:34;;;;;;;18.23;10.73;;;25.20;85.40;;;;;;5017948;28;20049;-60
2022/07/25 07:28:00;;;;;;;21.02;11.63;;;25.10;85.30;;;;;;5013140;28;20056;-59
2022/07/25 07:30:25;;;;;;;29.70;13.00;;;25.20;85.40;;;;;;5020227;28;20034;-62
2022/07/25 07:32:51;;;;;;;20.35;12.05;;;25.20;85.20;;;;;;5013473;28;20144;-60
2022/07/25 07:35:18;;;;;;;33.72;12.77;;;25.20;85.20;;;;;;5016527;28;20021;-60
2022/07/25 07:37:44;;;;;;;23.02;11.88;;;25.30;85.40;;;;;;5014306;28;20033;-59
2022/07/25 07:40:13;;;;;;;47.97;13.75;;;25.20;84.80;;;;;;5015674;28;20079;-60
2022/07/25 07:42:45;;;;;;;39.05;13.80;;;25.30;85.20;;;;;;5014806;28;20053;-60
2022/07/25 07:45:19;;;;;;;31.13;12.50;;;25.30;85.20;;;;;;5004494;28;20392;-60
2022/07/25 07:47:47;;;;;;;32.17;12.95;;;25.40;85.40;;;;;;5017258;28;20095;-60
2022/07/25 07:50:13;;;;;;;31.00;13.20;;;25.40;85.40;;;;;;5021161;28;20025;-60
2022/07/25 07:52:39;;;;;;;27.77;13.30;;;25.40;85.40;;;;;;5003195;28;20139;-60
2022/07/25 07:57:49;;;;;;;28.55;13.10;;;25.40;85.30;;;;;;5023881;28;20036;-60
2022/07/25 08:00:15;;;;;;;33.10;13.48;;;25.50;85.00;;;;;;4998626;28;20065;-60
2022/07/25 08:02:45;;;;;;;42.47;14.07;;;25.50;84.90;;;;;;5020711;28;20500;-60
2022/07/25 08:05:10;;;;;;;41.08;14.15;;;25.60;84.70;;;;;;5019873;28;20052;-60
2022/07/25 08:07:36;;;;;;;23.58;12.80;;;25.60;84.60;;;;;;5023652;28;20447;-61
2022/07/25 08:10:01;;;;;;;35.60;12.60;;;25.60;84.60;;;;;;5017097;28;20463;-60
2022/07/25 08:12:27;;;;;;;31.10;14.02;;;25.70;84.60;;;;;;5020216;28;20036;-60
2022/07/25 08:14:52;;;;;;;32.90;14.45;;;25.70;84.80;;;;;;5019680;28;20432;-60
2022/07/25 08:17:18;;;;;;;40.22;13.90;;;25.80;84.60;;;;;;5014654;28;20107;-59
2022/07/25 08:19:43;;;;;;;43.47;14.43;;;25.80;84.40;;;;;;5019731;28;20111;-60
2022/07/25 08:22:09;;;;;;;37.42;13.45;;;25.90;84.20;;;;;;5019973;28;20037;-60
2022/07/25 08:24:34;;;;;;;41.30;14.13;;;25.90;83.90;;;;;;5008640;28;20064;-61
2022/07/25 08:27:00;;;;;;;46.33;14.40;;;26.00;83.10;;;;;;5016213;28;20159;-60
2022/07/25 08:29:28;;;;;;;49.58;15.90;;;26.00;82.60;;;;;;5015642;28;21061;-60
2022/07/25 08:31:54;;;;;;;43.95;14.52;;;26.10;81.60;;;;;;5009901;28;20079;-60
2022/07/25 08:34:21;;;;;;;35.28;12.80;;;26.10;80.80;;;;;;5003091;28;20029;-60
2022/07/25 08:36:47;;;;;;;29.85;11.93;;;26.10;79.90;;;;;;5013305;28;20030;-61
2022/07/25 08:39:12;;;;;;;27.73;11.57;;;26.20;79.20;;;;;;5018392;28;20389;-60
2022/07/25 08:41:42;;;;;;;35.08;12.10;;;26.20;78.60;;;;;;5014594;28;20049;-60
2022/07/25 08:44:08;;;;;;;65.63;14.07;;;26.30;78.10;;;;;;5001293;28;20147;-60
2022/07/25 08:46:34;;;;;;;50.65;12.77;;;26.30;77.50;;;;;;5017190;28;20071;-60
2022/07/25 08:48:59;;;;;;;52.85;11.77;;;26.30;76.20;;;;;;5005709;28;20148;-61
2022/07/25 08:51:25;;;;;;;48.78;13.48;;;26.40;76.10;;;;;;4998029;28;20028;-61
2022/07/25 08:53:51;;;;;;;39.17;12.02;;;26.50;75.20;;;;;;4997249;28;20517;-61
2022/07/25 08:56:16;;;;;;;43.42;11.73;;;26.50;74.70;;;;;;5010567;28;20033;-60
2022/07/25 08:58:42;;;;;;;46.67;11.10;;;26.60;74.20;;;;;;5010700;28;20457;-60
2022/07/25 09:01:07;;;;;;;43.05;11.38;;;26.60;73.80;;;;;;5007803;28;20132;-60
2022/07/25 09:03:35;;;;;;;34.75;11.00;;;26.70;73.70;;;;;;5013503;28;20041;-60
2022/07/25 09:06:00;;;;;;;41.03;12.57;;;26.70;73.10;;;;;;5029092;28;20038;-60
2022/07/25 09:08:25;;;;;;;40.22;15.32;;;26.70;72.80;;;;;;4996534;28;20508;-60
2022/07/25 09:10:51;;;;;;;49.15;14.50;;;26.80;72.40;;;;;;5011975;28;20041;-61
2022/07/25 09:13:18;;;;;;;27.45;11.77;;;26.80;72.50;;;;;;5015760;28;20069;-61
2022/07/25 09:15:46;;;;;;;34.83;10.93;;;26.80;72.00;;;;;;5016648;28;20076;-63
2022/07/25 09:18:12;;;;;;;35.53;11.32;;;26.80;71.60;;;;;;5014469;28;20353;-61
2022/07/25 09:20:42;;;;;;;56.53;11.73;;;26.90;71.50;;;;;;5018330;28;20049;-60
2022/07/25 09:23:13;;;;;;;77.78;14.30;;;26.90;71.50;;;;;;5006208;28;20112;-61
2022/07/25 09:25:38;;;;;;;43.58;11.25;;;26.90;71.40;;;;;;5017886;28;20284;-61
2022/07/25 09:28:14;;;;;;;35.70;11.75;;;27.00;71.10;;;;;;5016480;28;20308;-60
2022/07/25 09:30:51;;;;;;;37.08;12.18;;;27.00;70.50;;;;;;5016177;28;20102;-60
2022/07/25 09:33:16;;;;;;;52.05;11.25;;;27.10;70.20;;;;;;5002274;28;20139;-59
2022/07/25 09:35:42;;;;;;;32.58;11.35;;;27.10;70.00;;;;;;4995143;28;20540;-61
2022/07/25 09:38:12;;;;;;;41.63;11.88;;;27.20;69.80;;;;;;5007272;28;20050;-61
2022/07/25 09:40:38;;;;;;;39.67;10.75;;;27.20;69.50;;;;;;5003920;28;20076;-60
2022/07/25 09:43:04;;;;;;;36.60;11.63;;;27.30;69.30;;;;;;5008310;28;20628;-60
2022/07/25 09:45:29;;;;;;;57.75;12.70;;;27.30;68.90;;;;;;5018196;28;20504;-61
2022/07/25 09:48:02;;;;;;;58.17;12.25;;;27.30;69.10;;;;;;5014146;28;20022;-61
2022/07/25 09:50:29;;;;;;;48.10;10.85;;;27.40;68.30;;;;;;4997466;28;20080;-60
2022/07/25 09:52:56;;;;;;;34.10;11.43;;;27.40;67.50;;;;;;5016057;28;20017;-60
2022/07/25 09:55:21;;;;;;;39.15;10.07;;;27.40;67.00;;;;;;5011859;28;20029;-63
2022/07/25 09:57:48;;;;;;;34.67;9.38;;;27.50;66.70;;;;;;5010206;28;20258;-63
2022/07/25 10:00:17;;;;;;;46.00;10.98;;;27.50;66.20;;;;;;5013968;28;20029;-60
2022/07/25 10:03:09;;;;;;;42.20;11.98;;;27.60;65.90;;;;;;5008578;28;20189;-60
2022/07/25 10:05:41;;;;;;;38.17;10.65;;;27.60;65.60;;;;;;5003353;28;20079;-60
2022/07/25 10:08:07;;;;;;;44.45;11.50;;;27.70;65.30;;;;;;5017020;28;20707;-62
2022/07/25 10:10:37;;;;;;;39.65;11.25;;;27.70;64.90;;;;;;5013941;28;20120;-61
2022/07/25 10:13:31;;;;;;;47.80;12.80;;;27.70;64.50;;;;;;5010052;28;21578;-62
2022/07/25 10:15:57;;;;;;;39.22;11.70;;;27.80;64.00;;;;;;5014192;28;20037;-63
2022/07/25 10:18:24;;;;;;;37.55;11.35;;;27.90;63.60;;;;;;5012735;28;20705;-62
2022/07/25 10:20:51;;;;;;;61.00;12.75;;;27.90;63.30;;;;;;5009566;28;20295;-62
2022/07/25 10:23:26;;;;;;;52.45;11.77;;;27.90;63.20;;;;;;4978841;28;20025;-60
2022/07/25 10:26:08;;;;;;;53.70;12.40;;;28.00;62.90;;;;;;4998263;28;20259;-61
2022/07/25 10:28:40;;;;;;;51.33;12.23;;;28.00;62.80;;;;;;5007203;28;20026;-61
2022/07/25 10:31:31;;;;;;;38.08;11.23;;;28.10;62.90;;;;;;5012579;28;20069;-61
2022/07/25 10:34:01;;;;;;;36.05;11.23;;;28.20;62.40;;;;;;5012460;28;20041;-59
2022/07/25 10:36:31;;;;;;;55.05;12.23;;;28.20;62.10;;;;;;5019457;28;20022;-60
2022/07/25 10:38:57;;;;;;;36.38;10.93;;;28.20;62.20;;;;;;5008216;28;20492;-61
2022/07/25 10:41:24;;;;;;;40.33;12.85;;;28.20;61.80;;;;;;5006665;28;20033;-63
2022/07/25 10:43:50;;;;;;;35.58;12.95;;;28.30;61.70;;;;;;5008129;28;20370;-61
2022/07/25 10:46:25;;;;;;;38.38;10.82;;;28.40;61.30;;;;;;5008320;28;20044;-61
2022/07/25 10:49:02;;;;;;;46.17;11.13;;;28.40;60.70;;;;;;4995504;28;20123;-61
2022/07/25 10:51:30;;;;;;;40.38;10.68;;;28.40;60.40;;;;;;4996653;28;20037;-60
2022/07/25 10:53:55;;;;;;;48.75;11.48;;;28.50;60.30;;;;;;5013710;28;20128;-60
2022/07/25 10:56:22;;;;;;;36.70;10.95;;;28.50;60.00;;;;;;5014638;28;20030;-61
2022/07/25 10:58:55;;;;;;;41.38;10.77;;;28.60;60.60;;;;;;4994522;28;20026;-61
2022/07/25 11:01:21;;;;;;;45.00;12.15;;;28.70;59.90;;;;;;5017407;28;20029;-62
2022/07/25 11:03:47;;;;;;;50.95;11.63;;;28.70;59.80;;;;;;5000797;28;20041;-61
2022/07/25 11:06:13;;;;;;;25.77;8.82;;;28.80;59.80;;;;;;5009716;28;20037;-61
2022/07/25 11:08:39;;;;;;;35.35;10.07;;;28.90;59.60;;;;;;5013979;28;20081;-60
2022/07/25 11:11:05;;;;;;;38.20;9.85;;;28.90;59.40;;;;;;5010343;28;20041;-61
2022/07/25 11:13:38;;;;;;;28.13;9.20;;;29.00;59.20;;;;;;5013020;28;20034;-61
2022/07/25 11:16:04;;;;;;;32.13;9.30;;;29.10;59.20;;;;;;5013394;28;20492;-62
2022/07/25 11:18:35;;;;;;;27.90;9.50;;;29.10;58.90;;;;;;5010932;28;20056;-62
2022/07/25 11:21:01;;;;;;;27.95;9.65;;;29.20;58.70;;;;;;5014616;28;20029;-60
2022/07/25 11:23:27;;;;;;;24.77;9.18;;;29.30;58.80;;;;;;5013561;28;20064;-61
2022/07/25 11:26:05;;;;;;;23.05;7.38;;;29.40;58.60;;;;;;5015026;28;20108;-61
2022/07/25 11:28:41;;;;;;;29.13;8.70;;;29.50;58.00;;;;;;5015044;28;20036;-62
2022/07/25 11:31:07;;;;;;;30.15;9.35;;;29.60;58.30;;;;;;5017721;28;20041;-60
2022/07/25 11:33:32;;;;;;;45.45;9.82;;;29.70;58.00;;;;;;5012066;28;20346;-61
2022/07/25 11:35:58;;;;;;;118.50;19.75;;;29.80;58.20;;;;;;5012824;28;20052;-62
2022/07/25 11:38:24;;;;;;;31.98;8.40;;;29.90;57.50;;;;;;5000335;28;20160;-62
2022/07/25 11:40:50;;;;;;;35.20;7.65;;;30.00;56.50;;;;;;5002641;28;20029;-61
2022/07/25 11:43:19;;;;;;;37.65;8.60;;;30.10;56.40;;;;;;5017689;28;20034;-62
2022/07/25 11:45:57;;;;;;;47.28;9.57;;;30.30;56.80;;;;;;5016458;28;20037;-59
2022/07/25 11:48:30;;;;;;;40.55;8.48;;;30.40;56.40;;;;;;5018503;28;20022;-60
2022/07/25 11:50:55;;;;;;;22.67;6.60;;;30.60;56.40;;;;;;5024965;28;20615;-59
2022/07/25 11:53:21;;;;;;;63.83;10.45;;;30.60;56.20;;;;;;5022656;28;20041;-60
2022/07/25 11:55:46;;;;;;;22.55;6.90;;;30.70;56.30;;;;;;5012191;28;20059;-62
2022/07/25 11:58:12;;;;;;;18.20;5.95;;;30.80;55.80;;;;;;5014740;28;20472;-59
2022/07/25 12:00:42;;;;;;;25.25;6.72;;;30.90;55.90;;;;;;5012312;28;20111;-60
2022/07/25 12:03:09;;;;;;;31.23;7.18;;;31.00;55.60;;;;;;5015179;28;20076;-59
2022/07/25 12:05:34;;;;;;;31.13;8.27;;;31.10;55.60;;;;;;5016710;28;20017;-60
2022/07/25 12:08:11;;;;;;;33.35;6.90;;;31.20;55.60;;;;;;5014923;28;20547;-60
2022/07/25 12:10:37;;;;;;;26.05;7.35;;;31.30;55.60;;;;;;5014114;28;20049;-60
2022/07/25 12:13:03;;;;;;;36.28;8.20;;;31.30;55.40;;;;;;5001185;28;20152;-60
2022/07/25 12:15:37;;;;;;;34.10;8.25;;;31.40;55.30;;;;;;5009996;28;20073;-59
2022/07/25 12:18:02;;;;;;;36.38;6.78;;;31.50;55.20;;;;;;5015321;28;20504;-60
2022/07/25 12:20:33;;;;;;;27.90;6.85;;;31.70;55.00;;;;;;5011705;28;20123;-59
2022/07/25 12:23:05;;;;;;;32.25;7.72;;;31.70;54.90;;;;;;5011541;28;20037;-59
2022/07/25 12:25:32;;;;;;;30.52;8.98;;;31.90;54.60;;;;;;5014511;28;20168;-60
2022/07/25 12:27:58;;;;;;;22.77;6.70;;;31.90;54.30;;;;;;5015195;28;20519;-59
2022/07/25 12:30:23;;;;;;;30.90;9.10;;;32.00;54.20;;;;;;5000148;28;20033;-60
2022/07/25 12:32:49;;;;;;;20.83;8.05;;;32.20;54.10;;;;;;4998559;28;20044;-60
2022/07/25 12:35:15;;;;;;;21.30;7.45;;;32.20;54.00;;;;;;5015303;28;20034;-60